Time;durP1;ratioP1;P1;durP2;ratioP2;P2;SDS_P1;SDS_P2;PMS_P1;PMS_P2;Temp;Humidity;BMP_temperature;BMP_pressure;BME280_temperature;BME280_humidity;BME280_pressure;Samples;Min_cycle;Max_cycle;Signal;HPM_P1;HPM_P2
2024/04/03 00:02:03;;;;;;;4.80;0.80;;;;;;;;;;5071646;28;20058;-64
2024/04/03 00:04:28;;;;;;;4.63;0.82;;;;;;;;;;5071598;28;20025;-64
2024/04/03 00:06:53;;;;;;;4.82;0.88;;;;;;;;;;5071191;28;20113;-63
2024/04/03 00:09:18;;;;;;;5.50;1.08;;;;;;;;;;5071298;28;20500;-64
2024/04/03 00:11:43;;;;;;;5.00;0.80;;;;;;;;;;5071174;28;20021;-62
2024/04/03 00:14:08;;;;;;;3.38;0.82;;;;;;;;;;5071311;28;20117;-63
2024/04/03 00:16:34;;;;;;;5.75;1.00;;;;;;;;;;5071316;28;20012;-64
2024/04/03 00:18:59;;;;;;;5.43;0.80;;;;;;;;;;5071378;28;20025;-66
2024/04/03 00:21:24;;;;;;;5.53;0.88;;;;;;;;;;5071282;28;20186;-64
2024/04/03 00:23:49;;;;;;;4.60;0.80;;;;;;;;;;5070997;28;20025;-62
2024/04/03 00:26:14;;;;;;;4.72;0.90;;;;;;;;;;5071826;28;20166;-62
2024/04/03 00:28:39;;;;;;;5.88;1.13;;;;;;;;;;5071474;28;20032;-62
2024/04/03 00:31:04;;;;;;;5.82;1.10;;;;;;;;;;5026382;28;20030;-64
2024/04/03 00:33:30;;;;;;;4.47;0.93;;;;;;;;;;4951500;28;20055;-63
2024/04/03 00:35:59;;;;;;;6.40;0.93;;;;;;;;;;4950459;28;20027;-62
2024/04/03 00:38:25;;;;;;;7.22;0.90;;;;;;;;;;5057778;28;20036;-63
2024/04/03 00:40:53;;;;;;;5.47;0.95;;;;;;;;;;5071216;28;20025;-62
2024/04/03 00:43:19;;;;;;;5.70;1.10;;;;;;;;;;5070845;28;20028;-65
2024/04/03 00:45:44;;;;;;;7.10;1.20;;;;;;;;;;5070917;28;20245;-64
2024/04/03 00:48:09;;;;;;;4.70;0.77;;;;;;;;;;5070407;28;20031;-64
2024/04/03 00:50:34;;;;;;;5.63;0.90;;;;;;;;;;5073209;28;20044;-64
2024/04/03 00:53:00;;;;;;;7.35;1.00;;;;;;;;;;5079293;28;20036;-63
2024/04/03 00:55:25;;;;;;;6.47;1.00;;;;;;;;;;5079648;28;20028;-64
2024/04/03 00:57:51;;;;;;;5.90;0.87;;;;;;;;;;5070508;28;20058;-62
2024/04/03 01:00:17;;;;;;;3.95;0.70;;;;;;;;;;5071394;28;20016;-64
2024/04/03 01:02:42;;;;;;;3.88;0.70;;;;;;;;;;5072330;28;20039;-63
2024/04/03 01:05:07;;;;;;;3.90;1.00;;;;;;;;;;5078293;28;20111;-62
2024/04/03 01:07:35;;;;;;;5.55;1.55;;;;;;;;;;5078098;28;20017;-63
2024/04/03 01:10:00;;;;;;;5.32;0.73;;;;;;;;;;5070671;28;20017;-63
2024/04/03 01:12:27;;;;;;;5.28;1.33;;;;;;;;;;5070551;28;20104;-64
2024/04/03 01:14:52;;;;;;;6.38;1.45;;;;;;;;;;5071582;28;20040;-64
2024/04/03 01:17:18;;;;;;;5.82;0.80;;;;;;;;;;5072202;28;20025;-63
2024/04/03 01:19:43;;;;;;;4.90;0.75;;;;;;;;;;5071428;28;20040;-62
2024/04/03 01:22:08;;;;;;;4.10;0.73;;;;;;;;;;5071369;28;20044;-64
2024/04/03 01:24:33;;;;;;;3.75;0.82;;;;;;;;;;5075433;28;20036;-63
2024/04/03 01:26:58;;;;;;;2.88;0.70;;;;;;;;;;5079074;28;20168;-63
2024/04/03 01:29:23;;;;;;;5.65;0.65;;;;;;;;;;5077358;28;20029;-63
2024/04/03 01:31:48;;;;;;;6.70;0.73;;;;;;;;;;5079027;28;20392;-64
2024/04/03 01:34:14;;;;;;;5.72;0.80;;;;;;;;;;5085528;28;20025;-65
2024/04/03 01:36:39;;;;;;;6.88;1.38;;;;;;;;;;5084096;28;20080;-65
2024/04/03 01:39:04;;;;;;;3.53;0.82;;;;;;;;;;4987932;28;20029;-63
2024/04/03 01:41:29;;;;;;;5.57;0.90;;;;;;;;;;4980186;28;20039;-64
2024/04/03 01:43:54;;;;;;;3.70;0.83;;;;;;;;;;4977227;28;20030;-63
2024/04/03 01:46:19;;;;;;;4.97;0.98;;;;;;;;;;4977219;28;20046;-62
2024/04/03 01:48:44;;;;;;;4.65;0.90;;;;;;;;;;4971458;28;20027;-63
2024/04/03 01:51:10;;;;;;;6.68;0.80;;;;;;;;;;4969914;28;20116;-64
2024/04/03 01:53:35;;;;;;;6.38;0.82;;;;;;;;;;4968058;28;20034;-63
2024/04/03 01:56:00;;;;;;;3.75;0.80;;;;;;;;;;4967478;28;20026;-63
2024/04/03 01:58:25;;;;;;;5.57;1.00;;;;;;;;;;4969826;28;20418;-62
2024/04/03 02:00:51;;;;;;;5.17;0.73;;;;;;;;;;4973029;28;20015;-64
2024/04/03 02:03:17;;;;;;;4.80;0.73;;;;;;;;;;4973244;28;20022;-63
2024/04/03 02:05:43;;;;;;;5.07;0.90;;;;;;;;;;4973468;28;20340;-64
2024/04/03 02:08:08;;;;;;;6.82;0.90;;;;;;;;;;4973606;28;20042;-63
2024/04/03 02:10:33;;;;;;;3.22;0.50;;;;;;;;;;4973794;28;20089;-64
2024/04/03 02:12:58;;;;;;;4.00;0.90;;;;;;;;;;4973456;28;20035;-64
2024/04/03 02:15:23;;;;;;;5.97;0.87;;;;;;;;;;4975383;28;20038;-64
2024/04/03 02:17:48;;;;;;;4.40;0.60;;;;;;;;;;4976357;28;20019;-64
2024/04/03 02:20:14;;;;;;;4.00;0.70;;;;;;;;;;4976916;28;20088;-64
2024/04/03 02:22:39;;;;;;;3.30;0.70;;;;;;;;;;4978980;28;20023;-64
2024/04/03 02:25:04;;;;;;;4.32;0.70;;;;;;;;;;4977297;28;20027;-63
2024/04/03 02:27:29;;;;;;;7.10;0.80;;;;;;;;;;4978189;28;20057;-63
2024/04/03 02:29:54;;;;;;;5.28;0.85;;;;;;;;;;5015566;28;20029;-64
2024/04/03 02:32:19;;;;;;;5.20;0.88;;;;;;;;;;5085129;28;20025;-64
2024/04/03 02:34:45;;;;;;;5.37;0.97;;;;;;;;;;5083110;28;20404;-62
2024/04/03 02:37:10;;;;;;;4.95;1.10;;;;;;;;;;5069822;28;20024;-62
2024/04/03 02:39:35;;;;;;;3.85;0.60;;;;;;;;;;5074500;28;20031;-62
2024/04/03 02:42:02;;;;;;;7.22;1.00;;;;;;;;;;5074202;28;20076;-64
2024/04/03 02:44:27;;;;;;;3.63;0.70;;;;;;;;;;5075282;28;20055;-63
2024/04/03 02:46:52;;;;;;;3.38;0.70;;;;;;;;;;5079987;28;20021;-64
2024/04/03 02:49:17;;;;;;;3.38;0.70;;;;;;;;;;5073607;28;20058;-63
2024/04/03 02:51:42;;;;;;;3.80;0.80;;;;;;;;;;5074035;28;20421;-62
2024/04/03 02:54:07;;;;;;;5.47;0.70;;;;;;;;;;5074464;28;20028;-62
2024/04/03 02:56:33;;;;;;;3.25;0.85;;;;;;;;;;5073629;28;20024;-63
2024/04/03 02:58:58;;;;;;;6.30;0.82;;;;;;;;;;5073536;28;20113;-64
2024/04/03 03:01:24;;;;;;;3.93;0.80;;;;;;;;;;5007820;28;20053;-62
2024/04/03 03:03:49;;;;;;;3.83;0.70;;;;;;;;;;4997286;28;20401;-65
2024/04/03 03:06:14;;;;;;;5.37;0.90;;;;;;;;;;4992879;28;20076;-65
2024/04/03 03:08:39;;;;;;;3.83;0.68;;;;;;;;;;5006115;28;20069;-64
2024/04/03 03:11:04;;;;;;;4.23;0.80;;;;;;;;;;4987806;28;20039;-63
2024/04/03 03:13:30;;;;;;;2.70;0.70;;;;;;;;;;4995754;28;20026;-64
2024/04/03 03:15:56;;;;;;;5.55;0.85;;;;;;;;;;4976053;28;20038;-62
2024/04/03 03:18:22;;;;;;;4.13;0.70;;;;;;;;;;4968904;28;20510;-63
2024/04/03 03:20:48;;;;;;;2.38;0.70;;;;;;;;;;4978614;28;20024;-64
2024/04/03 03:23:13;;;;;;;4.20;0.90;;;;;;;;;;4977246;28;20030;-64
2024/04/03 03:25:38;;;;;;;5.72;0.75;;;;;;;;;;4982859;28;20024;-64
2024/04/03 03:28:03;;;;;;;6.20;1.08;;;;;;;;;;4976018;28;20756;-64
2024/04/03 03:30:29;;;;;;;3.33;1.02;;;;;;;;;;4973072;28;20388;-63
2024/04/03 03:32:54;;;;;;;4.20;0.97;;;;;;;;;;4970595;28;20019;-63
2024/04/03 03:35:19;;;;;;;4.18;0.90;;;;;;;;;;4968891;28;20050;-63
2024/04/03 03:37:45;;;;;;;4.00;0.90;;;;;;;;;;4972234;28;20075;-64
2024/04/03 03:40:10;;;;;;;4.97;1.17;;;;;;;;;;4978989;28;23245;-62
2024/04/03 03:42:35;;;;;;;3.05;0.70;;;;;;;;;;4967687;28;20058;-62
2024/04/03 03:45:00;;;;;;;4.85;0.77;;;;;;;;;;4968387;28;20487;-64
2024/04/03 03:47:25;;;;;;;4.07;0.90;;;;;;;;;;4970367;28;20076;-64
2024/04/03 03:52:40;;;;;;;2.85;0.70;;;;;;;;;;4971722;28;20046;-65
2024/04/03 03:55:05;;;;;;;4.80;1.08;;;;;;;;;;4974075;28;20096;-64
2024/04/03 03:57:31;;;;;;;7.85;1.23;;;;;;;;;;4968952;28;20031;-63
2024/04/03 03:59:56;;;;;;;4.87;0.70;;;;;;;;;;4969664;28;20062;-63
2024/04/03 04:02:22;;;;;;;4.55;0.88;;;;;;;;;;4966836;28;21869;-64
2024/04/03 04:04:51;;;;;;;4.43;0.80;;;;;;;;;;4968582;28;20021;-64
2024/04/03 04:07:18;;;;;;;5.68;1.00;;;;;;;;;;4970601;28;20031;-65
2024/04/03 04:09:46;;;;;;;4.05;0.80;;;;;;;;;;4967371;28;20052;-63
2024/04/03 04:12:11;;;;;;;5.28;0.77;;;;;;;;;;4962966;28;20592;-63
2024/04/03 04:14:36;;;;;;;2.92;0.70;;;;;;;;;;4972528;28;20564;-62
2024/04/03 04:17:02;;;;;;;4.38;0.98;;;;;;;;;;4972802;28;20042;-64
2024/04/03 04:19:27;;;;;;;4.00;0.80;;;;;;;;;;4974848;28;20050;-64
2024/04/03 04:21:52;;;;;;;5.30;1.00;;;;;;;;;;4970259;28;20022;-63
2024/04/03 04:24:20;;;;;;;5.32;0.95;;;;;;;;;;4972862;28;20302;-63
2024/04/03 04:26:46;;;;;;;7.88;0.90;;;;;;;;;;4972071;28;20067;-65
2024/04/03 04:29:11;;;;;;;4.32;0.80;;;;;;;;;;4974141;28;23283;-64
2024/04/03 04:31:36;;;;;;;4.38;0.73;;;;;;;;;;4974841;28;20035;-63
2024/04/03 04:34:02;;;;;;;3.80;0.70;;;;;;;;;;4973892;28;20039;-64
2024/04/03 04:36:27;;;;;;;5.40;0.90;;;;;;;;;;4979641;28;20117;-64
2024/04/03 04:38:52;;;;;;;4.18;0.90;;;;;;;;;;4977986;28;20038;-65
2024/04/03 04:41:17;;;;;;;6.17;1.00;;;;;;;;;;4980740;28;20184;-64
2024/04/03 04:43:42;;;;;;;6.05;1.00;;;;;;;;;;4966420;28;20029;-64
2024/04/03 04:46:07;;;;;;;4.97;1.10;;;;;;;;;;4968674;28;20167;-64
2024/04/03 04:48:33;;;;;;;3.80;0.70;;;;;;;;;;4972388;28;20035;-63
2024/04/03 04:50:59;;;;;;;6.80;0.70;;;;;;;;;;4973742;28;20394;-65
2024/04/03 04:53:24;;;;;;;4.43;1.00;;;;;;;;;;4968899;28;20024;-65
2024/04/03 04:55:53;;;;;;;2.83;0.63;;;;;;;;;;4968777;28;20471;-64
2024/04/03 04:58:18;;;;;;;4.75;0.88;;;;;;;;;;4970010;28;20024;-64
2024/04/03 05:00:43;;;;;;;6.72;1.00;;;;;;;;;;4968674;28;20045;-64
2024/04/03 05:03:08;;;;;;;4.05;0.73;;;;;;;;;;4970167;28;20043;-64
2024/04/03 05:05:34;;;;;;;4.77;0.80;;;;;;;;;;4968027;28;20123;-64
2024/04/03 05:07:59;;;;;;;2.50;0.60;;;;;;;;;;4963442;28;20752;-64
2024/04/03 05:10:24;;;;;;;8.15;1.23;;;;;;;;;;4965919;28;20034;-65
2024/04/03 05:12:51;;;;;;;4.83;0.80;;;;;;;;;;4970499;28;20038;-65
2024/04/03 05:15:16;;;;;;;5.03;0.98;;;;;;;;;;4970144;28;20031;-64
2024/04/03 05:17:42;;;;;;;3.45;0.80;;;;;;;;;;4972210;28;20027;-64
2024/04/03 05:20:07;;;;;;;2.80;0.70;;;;;;;;;;4968132;28;20049;-65
2024/04/03 05:22:32;;;;;;;4.10;0.70;;;;;;;;;;4963245;28;20034;-66
2024/04/03 05:24:57;;;;;;;4.40;0.63;;;;;;;;;;4969548;28;20490;-63
2024/04/03 05:27:24;;;;;;;4.95;0.90;;;;;;;;;;4971415;28;20035;-64
2024/04/03 05:29:49;;;;;;;4.32;0.85;;;;;;;;;;4973950;28;20330;-63
2024/04/03 05:32:14;;;;;;;6.15;0.80;;;;;;;;;;4966912;28;20034;-64
2024/04/03 05:34:39;;;;;;;5.78;0.95;;;;;;;;;;4973286;28;20046;-66
2024/04/03 05:37:04;;;;;;;4.10;0.85;;;;;;;;;;4980296;28;20027;-65
2024/04/03 05:39:29;;;;;;;5.40;0.80;;;;;;;;;;4971666;28;20042;-65
2024/04/03 05:41:55;;;;;;;3.60;0.70;;;;;;;;;;4975743;28;20062;-64
2024/04/03 05:44:20;;;;;;;3.55;0.80;;;;;;;;;;4977600;28;20406;-66
2024/04/03 05:46:45;;;;;;;4.43;0.82;;;;;;;;;;4972575;28;20403;-65
2024/04/03 05:49:10;;;;;;;4.57;0.85;;;;;;;;;;4973269;28;20307;-65
2024/04/03 05:51:35;;;;;;;3.53;0.55;;;;;;;;;;4975036;28;20048;-64
2024/04/03 05:54:00;;;;;;;3.83;0.60;;;;;;;;;;4975846;28;20487;-64
2024/04/03 05:56:25;;;;;;;4.07;0.70;;;;;;;;;;4968406;28;20079;-65
2024/04/03 05:58:54;;;;;;;4.85;0.80;;;;;;;;;;4977623;28;20406;-64
2024/04/03 06:01:19;;;;;;;4.53;0.77;;;;;;;;;;4977190;28;20023;-65
2024/04/03 06:03:44;;;;;;;6.73;0.80;;;;;;;;;;4972053;28;20029;-64
2024/04/03 06:06:09;;;;;;;2.92;0.68;;;;;;;;;;4973428;28;20038;-65
2024/04/03 06:08:35;;;;;;;4.47;0.95;;;;;;;;;;4971897;28;20041;-65
2024/04/03 06:11:00;;;;;;;5.20;1.00;;;;;;;;;;4968232;28;20131;-64
2024/04/03 06:13:26;;;;;;;3.25;0.70;;;;;;;;;;4973500;28;20020;-63
2024/04/03 06:15:52;;;;;;;4.15;0.70;;;;;;;;;;4973936;28;20885;-65
2024/04/03 06:18:21;;;;;;;2.80;0.65;;;;;;;;;;4973515;28;20552;-64
2024/04/03 06:20:47;;;;;;;3.63;0.70;;;;;;;;;;4971356;28;20121;-64
2024/04/03 06:23:12;;;;;;;4.00;0.60;;;;;;;;;;4971729;28;20027;-64
2024/04/03 06:25:37;;;;;;;3.00;0.60;;;;;;;;;;4971508;28;20047;-64
2024/04/03 06:28:03;;;;;;;2.70;0.60;;;;;;;;;;4972114;28;20043;-64
2024/04/03 06:30:28;;;;;;;4.60;0.80;;;;;;;;;;4974264;28;20044;-64
2024/04/03 06:32:53;;;;;;;3.85;0.57;;;;;;;;;;4973512;28;20062;-64
2024/04/03 06:35:18;;;;;;;6.65;1.20;;;;;;;;;;4970304;28;20032;-64
2024/04/03 06:37:44;;;;;;;4.40;0.70;;;;;;;;;;4971966;28;20054;-65
2024/04/03 06:40:09;;;;;;;3.17;0.75;;;;;;;;;;4973729;28;20032;-64
2024/04/03 06:42:35;;;;;;;5.38;0.85;;;;;;;;;;4966653;28;20034;-63
2024/04/03 06:45:00;;;;;;;5.25;0.65;;;;;;;;;;4970018;28;20585;-64
2024/04/03 06:47:26;;;;;;;3.72;0.70;;;;;;;;;;4974799;28;20023;-65
2024/04/03 06:49:53;;;;;;;4.30;0.80;;;;;;;;;;4974896;28;20051;-64
2024/04/03 06:52:18;;;;;;;3.92;0.60;;;;;;;;;;4976649;28;20123;-65
2024/04/03 06:54:43;;;;;;;3.90;0.80;;;;;;;;;;4972973;28;20105;-64
2024/04/03 06:57:08;;;;;;;6.77;0.90;;;;;;;;;;4974266;28;20035;-64
2024/04/03 06:59:34;;;;;;;5.38;0.85;;;;;;;;;;4973267;28;20022;-63
2024/04/03 07:01:59;;;;;;;4.10;0.70;;;;;;;;;;4970602;28;20058;-64
2024/04/03 07:04:25;;;;;;;2.38;0.60;;;;;;;;;;4971508;28;20028;-68
2024/04/03 07:06:50;;;;;;;2.80;0.60;;;;;;;;;;4980320;28;20099;-68
2024/04/03 07:09:15;;;;;;;4.07;0.90;;;;;;;;;;4977591;28;20628;-63
2024/04/03 07:11:40;;;;;;;3.90;0.73;;;;;;;;;;4979181;28;20046;-64
2024/04/03 07:14:05;;;;;;;3.88;0.90;;;;;;;;;;4977291;28;20034;-63
2024/04/03 07:16:30;;;;;;;4.50;0.80;;;;;;;;;;4976341;28;20051;-63
2024/04/03 07:18:56;;;;;;;3.85;0.80;;;;;;;;;;4989360;28;20041;-63
2024/04/03 07:21:21;;;;;;;4.85;1.00;;;;;;;;;;4978859;28;20055;-65
2024/04/03 07:23:47;;;;;;;3.40;0.88;;;;;;;;;;4986827;28;20571;-64
2024/04/03 07:26:12;;;;;;;3.53;0.75;;;;;;;;;;4991946;28;20035;-65
2024/04/03 07:28:37;;;;;;;2.72;0.60;;;;;;;;;;4983590;28;20052;-65
2024/04/03 07:31:02;;;;;;;3.55;0.63;;;;;;;;;;4976361;28;20050;-64
2024/04/03 07:33:28;;;;;;;5.93;0.90;;;;;;;;;;4971676;28;20040;-66
2024/04/03 07:35:53;;;;;;;5.57;0.82;;;;;;;;;;4973696;28;20030;-65
2024/04/03 07:38:20;;;;;;;4.83;0.80;;;;;;;;;;4968713;28;20031;-63
2024/04/03 07:40:47;;;;;;;3.08;0.70;;;;;;;;;;4967182;28;20023;-65
2024/04/03 07:43:12;;;;;;;4.93;0.82;;;;;;;;;;4976982;28;20730;-64
2024/04/03 07:45:37;;;;;;;3.75;0.70;;;;;;;;;;4972682;28;20039;-66
2024/04/03 07:48:03;;;;;;;3.90;0.80;;;;;;;;;;4972799;28;20410;-63
2024/04/03 07:50:28;;;;;;;4.22;0.90;;;;;;;;;;4971390;28;20195;-64
2024/04/03 07:52:53;;;;;;;4.60;0.80;;;;;;;;;;4971980;28;20024;-67
2024/04/03 07:55:18;;;;;;;3.50;0.83;;;;;;;;;;4970079;28;20861;-64
2024/04/03 07:57:43;;;;;;;3.58;0.77;;;;;;;;;;4970836;28;20023;-64
2024/04/03 08:00:09;;;;;;;3.60;0.70;;;;;;;;;;4972103;28;20089;-64
2024/04/03 08:02:37;;;;;;;6.15;0.95;;;;;;;;;;4970116;28;20050;-64
2024/04/03 08:05:06;;;;;;;2.63;0.70;;;;;;;;;;4973475;28;20039;-64
2024/04/03 08:07:31;;;;;;;5.57;0.90;;;;;;;;;;4977146;28;20019;-66
2024/04/03 08:09:56;;;;;;;4.17;0.67;;;;;;;;;;4971941;28;20656;-64
2024/04/03 08:12:21;;;;;;;3.03;0.70;;;;;;;;;;4968144;28;20559;-65
2024/04/03 08:14:46;;;;;;;2.87;0.60;;;;;;;;;;4969795;28;20044;-63
2024/04/03 08:17:11;;;;;;;3.67;0.80;;;;;;;;;;4969886;28;20041;-65
2024/04/03 08:19:37;;;;;;;4.45;0.70;;;;;;;;;;4969945;28;20059;-65
2024/04/03 08:22:02;;;;;;;4.23;0.67;;;;;;;;;;4970827;28;20049;-65
2024/04/03 08:24:27;;;;;;;2.57;0.67;;;;;;;;;;4971317;28;20508;-66
2024/04/03 08:26:54;;;;;;;4.70;0.73;;;;;;;;;;4970375;28;20087;-65
2024/04/03 08:29:21;;;;;;;3.45;0.60;;;;;;;;;;4969724;28;20418;-64
2024/04/03 08:31:46;;;;;;;4.88;0.80;;;;;;;;;;4965689;28;20026;-63
2024/04/03 08:34:13;;;;;;;5.30;0.85;;;;;;;;;;4973815;28;20034;-63
2024/04/03 08:36:38;;;;;;;4.85;0.90;;;;;;;;;;4971616;28;20036;-65
2024/04/03 08:39:03;;;;;;;3.97;0.68;;;;;;;;;;4966267;28;20589;-66
2024/04/03 08:41:28;;;;;;;8.37;0.80;;;;;;;;;;4976934;28;20035;-66
2024/04/03 08:43:54;;;;;;;2.43;0.70;;;;;;;;;;4970357;28;20164;-66
2024/04/03 08:46:19;;;;;;;3.95;0.75;;;;;;;;;;4965202;28;20043;-65
2024/04/03 08:48:46;;;;;;;3.03;0.70;;;;;;;;;;4972804;28;20047;-65
2024/04/03 08:51:12;;;;;;;4.30;1.00;;;;;;;;;;4965871;28;20026;-65
2024/04/03 08:53:38;;;;;;;5.57;1.00;;;;;;;;;;4968528;28;20043;-65
2024/04/03 08:56:03;;;;;;;6.25;1.00;;;;;;;;;;4964857;28;20561;-64
2024/04/03 08:58:30;;;;;;;5.83;1.00;;;;;;;;;;4972887;28;20646;-64
2024/04/03 09:00:55;;;;;;;;;;;;;;;;;;4971984;28;20454;-67
2024/04/03 09:03:21;;;;;;;4.55;0.98;;;;;;;;;;4964874;28;19918;-66
2024/04/03 09:05:47;;;;;;;3.63;0.85;;;;;;;;;;4970005;28;23711;-65
2024/04/03 09:08:12;;;;;;;3.58;0.85;;;;;;;;;;4966952;28;20518;-64
2024/04/03 09:10:43;;;;;;;6.43;1.03;;;;;;;;;;4977499;28;20026;-66
2024/04/03 09:13:08;;;;;;;4.68;0.80;;;;;;;;;;4978243;28;20107;-64
2024/04/03 09:15:34;;;;;;;3.38;0.90;;;;;;;;;;4972922;28;20486;-63
2024/04/03 09:18:06;;;;;;;2.90;0.70;;;;;;;;;;4968999;28;20021;-65
2024/04/03 09:20:32;;;;;;;3.97;0.80;;;;;;;;;;4969300;28;20037;-64
2024/04/03 09:22:57;;;;;;;3.97;0.80;;;;;;;;;;4970175;28;20029;-64
2024/04/03 09:25:30;;;;;;;3.90;0.75;;;;;;;;;;4968449;28;20037;-64
2024/04/03 09:27:59;;;;;;;5.00;0.90;;;;;;;;;;4971604;28;20520;-63
2024/04/03 09:30:24;;;;;;;4.85;0.75;;;;;;;;;;4974121;28;20054;-65
2024/04/03 09:32:54;;;;;;;4.72;0.85;;;;;;;;;;4972478;28;20114;-64
2024/04/03 09:35:21;;;;;;;5.10;0.88;;;;;;;;;;4962502;28;20042;-65
2024/04/03 09:37:47;;;;;;;5.00;0.85;;;;;;;;;;4969756;28;20027;-66
2024/04/03 09:40:12;;;;;;;5.30;0.90;;;;;;;;;;4974742;28;20037;-63
2024/04/03 09:42:37;;;;;;;3.72;0.85;;;;;;;;;;4972246;28;20511;-66
2024/04/03 09:45:06;;;;;;;4.50;1.00;;;;;;;;;;4980808;28;20031;-67
2024/04/03 09:47:33;;;;;;;3.53;0.80;;;;;;;;;;4991017;28;20017;-65
2024/04/03 09:50:01;;;;;;;4.32;0.80;;;;;;;;;;4978971;28;20028;-65
2024/04/03 09:52:27;;;;;;;3.92;0.93;;;;;;;;;;4971542;28;20086;-63
2024/04/03 09:54:53;;;;;;;3.40;0.85;;;;;;;;;;4972769;28;20088;-65
2024/04/03 09:57:18;;;;;;;7.05;1.35;;;;;;;;;;4972401;28;20031;-65
2024/04/03 09:59:48;;;;;;;4.47;1.00;;;;;;;;;;4970089;28;20035;-66
2024/04/03 10:02:14;;;;;;;4.03;0.85;;;;;;;;;;4969723;28;20575;-66
2024/04/03 10:04:39;;;;;;;4.90;0.77;;;;;;;;;;4972177;28;20055;-65
2024/04/03 10:07:14;;;;;;;5.57;0.80;;;;;;;;;;4966171;28;20023;-64
2024/04/03 10:09:39;;;;;;;4.07;0.85;;;;;;;;;;4961697;28;20039;-65
2024/04/03 10:12:07;;;;;;;4.47;0.90;;;;;;;;;;4966838;28;20023;-66
2024/04/03 10:14:35;;;;;;;3.15;0.80;;;;;;;;;;4962815;28;20517;-66
2024/04/03 10:17:00;;;;;;;3.92;0.90;;;;;;;;;;4965065;28;20031;-64
2024/04/03 10:19:32;;;;;;;3.00;0.65;;;;;;;;;;4966847;28;20056;-67
2024/04/03 10:22:02;;;;;;;3.00;0.70;;;;;;;;;;4975989;28;20044;-63
2024/04/03 10:24:31;;;;;;;4.53;0.82;;;;;;;;;;4970061;28;20033;-66
2024/04/03 10:26:56;;;;;;;5.18;0.90;;;;;;;;;;4953827;28;20131;-65
2024/04/03 10:29:21;;;;;;;4.70;0.73;;;;;;;;;;4969953;28;20087;-68
2024/04/03 10:31:47;;;;;;;3.60;0.70;;;;;;;;;;4973283;28;20498;-66
2024/04/03 10:34:16;;;;;;;5.47;0.80;;;;;;;;;;4971925;28;20090;-66
2024/04/03 10:36:41;;;;;;;3.28;0.70;;;;;;;;;;4963593;28;21292;-64
2024/04/03 10:39:06;;;;;;;3.67;0.60;;;;;;;;;;4967315;28;20042;-68
2024/04/03 10:41:32;;;;;;;3.08;0.50;;;;;;;;;;4970273;28;20132;-65
2024/04/03 10:43:57;;;;;;;3.33;0.70;;;;;;;;;;4966427;28;20069;-65
2024/04/03 10:46:23;;;;;;;3.63;0.75;;;;;;;;;;4963076;28;24281;-66
2024/04/03 10:48:48;;;;;;;3.28;0.80;;;;;;;;;;4970727;28;20019;-66
2024/04/03 10:51:14;;;;;;;2.00;0.40;;;;;;;;;;4971437;28;22154;-64
2024/04/03 10:53:39;;;;;;;2.67;0.70;;;;;;;;;;4970928;28;20039;-66
2024/04/03 10:56:04;;;;;;;2.72;0.73;;;;;;;;;;4974690;28;20051;-66
2024/04/03 10:58:30;;;;;;;2.60;0.70;;;;;;;;;;4987079;28;20092;-65
2024/04/03 11:00:55;;;;;;;2.15;0.50;;;;;;;;;;4984766;28;20024;-65
2024/04/03 11:03:21;;;;;;;2.88;0.45;;;;;;;;;;4978863;28;20038;-66
2024/04/03 11:05:48;;;;;;;2.35;0.40;;;;;;;;;;4989836;28;20050;-66
2024/04/03 11:08:15;;;;;;;2.72;0.55;;;;;;;;;;4985344;28;20054;-69
2024/04/03 11:10:40;;;;;;;;;;;;;;;;;;4980442;28;20026;-64
2024/04/03 11:13:06;;;;;;;1.65;0.40;;;;;;;;;;4966896;28;19952;-65
2024/04/03 11:15:32;;;;;;;2.85;0.50;;;;;;;;;;4972034;28;20025;-65
2024/04/03 11:17:59;;;;;;;2.75;0.70;;;;;;;;;;4982224;28;20035;-65
2024/04/03 11:20:25;;;;;;;4.80;0.70;;;;;;;;;;4975921;28;20042;-65
2024/04/03 11:22:52;;;;;;;3.00;0.70;;;;;;;;;;4974435;28;20017;-67
2024/04/03 11:25:18;;;;;;;2.28;0.60;;;;;;;;;;4974386;28;20208;-65
2024/04/03 11:27:43;;;;;;;4.13;0.98;;;;;;;;;;4975151;28;21849;-67
2024/04/03 11:30:08;;;;;;;2.58;0.55;;;;;;;;;;4971429;28;24301;-68
2024/04/03 11:32:34;;;;;;;3.27;0.70;;;;;;;;;;4979987;28;20368;-65
2024/04/03 11:34:59;;;;;;;3.03;0.60;;;;;;;;;;4973268;28;20023;-66
2024/04/03 11:37:25;;;;;;;4.23;0.70;;;;;;;;;;4972946;28;20472;-68
2024/04/03 11:39:50;;;;;;;5.10;0.60;;;;;;;;;;4968315;28;20029;-66
2024/04/03 11:42:15;;;;;;;3.85;0.70;;;;;;;;;;4971392;28;20813;-66
2024/04/03 11:44:40;;;;;;;3.97;0.73;;;;;;;;;;4970050;28;20035;-65
2024/04/03 11:47:06;;;;;;;1.77;0.50;;;;;;;;;;4971336;28;20130;-67
2024/04/03 11:49:31;;;;;;;3.55;0.68;;;;;;;;;;4967913;28;20462;-63
2024/04/03 11:51:56;;;;;;;3.72;0.77;;;;;;;;;;4969675;28;20034;-64
2024/04/03 11:54:21;;;;;;;5.37;0.97;;;;;;;;;;4973739;28;20117;-66
2024/04/03 11:56:46;;;;;;;4.95;0.73;;;;;;;;;;4970269;28;20030;-64
2024/04/03 11:59:13;;;;;;;3.55;0.60;;;;;;;;;;4973846;28;20022;-66
2024/04/03 12:01:38;;;;;;;4.43;0.73;;;;;;;;;;4976200;28;22135;-66
2024/04/03 12:04:03;;;;;;;3.93;0.70;;;;;;;;;;4978071;28;20019;-68
2024/04/03 12:06:29;;;;;;;3.10;0.82;;;;;;;;;;4978875;28;20163;-63
2024/04/03 12:08:56;;;;;;;3.75;0.60;;;;;;;;;;4968341;28;20435;-63
2024/04/03 12:11:22;;;;;;;2.58;0.65;;;;;;;;;;4973128;28;20031;-65
2024/04/03 12:13:47;;;;;;;3.75;0.50;;;;;;;;;;4976768;28;20065;-64
2024/04/03 12:16:13;;;;;;;3.92;0.57;;;;;;;;;;4974565;28;20035;-66
2024/04/03 12:18:48;;;;;;;;;;;;;;;;;;4976423;28;20486;-66
2024/04/03 12:21:14;;;;;;;2.47;0.55;;;;;;;;;;4974566;28;19912;-63
2024/04/03 12:23:41;;;;;;;2.30;0.55;;;;;;;;;;4977437;28;20031;-67
2024/04/03 12:26:07;;;;;;;3.50;0.65;;;;;;;;;;4965181;28;20057;-65
2024/04/03 12:28:32;;;;;;;3.60;0.70;;;;;;;;;;4974557;28;20505;-66
2024/04/03 12:30:57;;;;;;;3.08;0.50;;;;;;;;;;4974690;28;20024;-65
2024/04/03 12:33:23;;;;;;;3.03;0.50;;;;;;;;;;4971108;28;20053;-69
2024/04/03 12:35:48;;;;;;;2.50;0.65;;;;;;;;;;4971785;28;20030;-65
2024/04/03 12:38:14;;;;;;;2.47;0.57;;;;;;;;;;4963848;28;20020;-65
2024/04/03 12:40:39;;;;;;;3.30;0.57;;;;;;;;;;4975359;28;20030;-65
2024/04/03 12:43:05;;;;;;;1.88;0.50;;;;;;;;;;4974980;28;20047;-66
2024/04/03 12:45:30;;;;;;;4.07;0.50;;;;;;;;;;4967913;28;20039;-64
2024/04/03 12:47:55;;;;;;;3.17;0.57;;;;;;;;;;4972583;28;20061;-65
2024/04/03 12:50:21;;;;;;;1.67;0.43;;;;;;;;;;4966969;28;21012;-66
2024/04/03 12:52:46;;;;;;;4.03;0.70;;;;;;;;;;4970510;28;20162;-66
2024/04/03 12:55:11;;;;;;;3.83;0.63;;;;;;;;;;4967398;28;20122;-65
2024/04/03 12:57:37;;;;;;;4.43;0.55;;;;;;;;;;4973324;28;20028;-66
2024/04/03 13:00:03;;;;;;;;;;;;;;;;;;4968970;28;20026;-63
2024/04/03 13:02:28;;;;;;;3.63;0.70;;;;;;;;;;4969413;28;19912;-65
2024/04/03 13:04:54;;;;;;;2.17;0.60;;;;;;;;;;4967453;28;20052;-63
2024/04/03 13:07:19;;;;;;;1.90;0.50;;;;;;;;;;4970254;28;20016;-65
2024/04/03 13:09:44;;;;;;;2.57;0.60;;;;;;;;;;4959782;28;20073;-63
2024/04/03 13:12:10;;;;;;;2.43;0.43;;;;;;;;;;4967483;28;20114;-68
2024/04/03 13:14:35;;;;;;;;;;;;;;;;;;4970113;28;20077;-66
2024/04/03 13:17:02;;;;;;;4.00;0.70;;;;;;;;;;4971534;28;19964;-66
2024/04/03 13:19:27;;;;;;;;;;;;;;;;;;4975894;28;20057;-66
2024/04/03 13:21:52;;;;;;;3.58;0.60;;;;;;;;;;4970895;28;19964;-67
2024/04/03 13:24:17;;;;;;;4.40;0.60;;;;;;;;;;4972634;28;20023;-69
2024/04/03 13:26:42;;;;;;;3.77;0.70;;;;;;;;;;4971307;28;20062;-63
2024/04/03 13:29:08;;;;;;;2.70;0.57;;;;;;;;;;4971236;28;20031;-69
2024/04/03 13:31:33;;;;;;;3.42;0.77;;;;;;;;;;4964575;28;20364;-65
2024/04/03 13:33:58;;;;;;;2.65;0.73;;;;;;;;;;4968534;28;20071;-64
2024/04/03 13:36:24;;;;;;;3.50;0.70;;;;;;;;;;4967416;28;20233;-65
2024/04/03 13:38:49;;;;;;;2.38;0.50;;;;;;;;;;4967031;28;20854;-65
2024/04/03 13:41:14;;;;;;;1.97;0.50;;;;;;;;;;4971253;28;20039;-66
2024/04/03 13:43:43;;;;;;;2.50;0.70;;;;;;;;;;4974036;28;20478;-65
2024/04/03 13:46:09;;;;;;;3.50;0.82;;;;;;;;;;4972058;28;20466;-66
2024/04/03 13:48:34;;;;;;;5.25;0.70;;;;;;;;;;4974334;28;20018;-65
2024/04/03 13:50:59;;;;;;;3.60;0.60;;;;;;;;;;4972103;28;20027;-66
2024/04/03 13:53:25;;;;;;;2.00;0.50;;;;;;;;;;4963611;28;20057;-67
2024/04/03 13:55:57;;;;;;;3.05;0.60;;;;;;;;;;4974581;28;20108;-66
2024/04/03 13:58:22;;;;;;;3.05;0.50;;;;;;;;;;4977867;28;20046;-65
2024/04/03 14:00:49;;;;;;;2.97;0.60;;;;;;;;;;4977203;28;20479;-67
2024/04/03 14:03:15;;;;;;;2.72;0.50;;;;;;;;;;4986296;28;20035;-63
2024/04/03 14:05:40;;;;;;;2.40;0.43;;;;;;;;;;4981395;28;20031;-65
2024/04/03 14:08:05;;;;;;;3.67;0.67;;;;;;;;;;4975965;28;20556;-64
2024/04/03 14:10:30;;;;;;;4.50;0.77;;;;;;;;;;4974401;28;20057;-66
2024/04/03 14:12:55;;;;;;;4.00;0.80;;;;;;;;;;4972964;28;20552;-66
2024/04/03 14:15:21;;;;;;;3.80;0.60;;;;;;;;;;4975774;28;20100;-67
2024/04/03 14:17:46;;;;;;;3.30;0.68;;;;;;;;;;4975234;28;20134;-67
2024/04/03 14:20:11;;;;;;;2.67;0.60;;;;;;;;;;4966132;28;20046;-65
2024/04/03 14:22:36;;;;;;;2.10;0.60;;;;;;;;;;4978757;28;20808;-66
2024/04/03 14:25:02;;;;;;;2.40;0.50;;;;;;;;;;4968194;28;20382;-64
2024/04/03 14:27:29;;;;;;;4.20;0.80;;;;;;;;;;4971284;28;20033;-65
2024/04/03 14:29:54;;;;;;;5.30;1.00;;;;;;;;;;4979511;28;20106;-65
2024/04/03 14:32:20;;;;;;;3.55;0.52;;;;;;;;;;4976875;28;20016;-64
2024/04/03 14:34:45;;;;;;;3.20;1.00;;;;;;;;;;4977971;28;20089;-64
2024/04/03 14:37:10;;;;;;;4.20;0.93;;;;;;;;;;4967345;28;20023;-64
2024/04/03 14:39:35;;;;;;;3.88;0.68;;;;;;;;;;4973027;28;20493;-64